Youngstown, OH (44503)

8:26 AM EST on January 28, 2015 (GMT -0500)
West Side | Change Station
CLOSE
Current Station
Personal Weather Station
Location: Youngstown, OH
Elevation: 1010 ft
Nearby Weather Stations

Elev 1010 ft 41.09 °N, 80.70 °W | Updated 3 seconds ago

Clear
Clear
-3.8 °F
Feels Like -4 °F
N
0.0
Wind Variable Wind from North
Gusts 0.0 mph

Today
High -- | Low -- °F
--% Chance of Precip.
Yesterday
High -- | Low -- °F
Precip. -- in
7:37 AM 5:34 PM
Waxing Gibbous, 64% visible
Pressure 30.34 in
Visibility 2.5 miles
Clouds Few 25000 ft
Windchill -4 °F
Dew Point -11 °F
Humidity 70%
Rainfall 0.00 in
Snow Depth Not available.
UV 0 out of 12
Pollen .10 out of 12
Air Quality Not available.
Flu Activity Not available.
METAR KYNG 281251Z 25005KT 2 1/2SM BR FEW250 M16/M17 A3026 RMK AO2 SLP274 T11611172

More Conditions Fewer Conditions

Pressure 30.34 in
Visibility 2.5 miles
Clouds Few 25000 ft
Windchill -4 °F
Dew Point -11 °F
Humidity 70%
Rainfall 0.00 in
Snow Depth Not available.
UV 0 out of 12
Pollen .10 out of 12
Air Quality Not available.
Flu Activity Not available.
METAR KYNG 281251Z 25005KT 2 1/2SM BR FEW250 M16/M17 A3026 RMK AO2 SLP274 T11611172

More Conditions Fewer Conditions

10-Day Weather Forecast

Almanac

Astronomy

Jan. 28, 2015 Rise Set
Actual Time
Civil Twilight
Nautical Twilight
Astronomical Twilight
Moon
Length of Visible Light
Length of Day
Tomorrow will be .
, % of the Moon is Illuminated

Today's Extremes

State Highs State Lows

Community

WunderPhotos

Upload Photos

1,791,136 photos uploaded!

WunderBlogs® & News

Nearby

Air Quality

  Air Quality AQ Index Pollutant
Not available.

Snow Depth

Station Depth Elevation

Earthquake Activity

City Distance Mag. Time & Date
Minimum magnitude displayed is 2.5.

Coastal Water Temperatures

Place Temperature

Nearby Weather Stations